sensor_id;sensor_type;location;lat;lon;timestamp;P1;durP1;ratioP1;P2;durP2;ratioP2
69083;SDS011;56185;48.526;9.044;2024-01-10T00:01:18;24.95;;;12.38;;
69083;SDS011;56185;48.526;9.044;2024-01-10T00:03:43;26.50;;;13.10;;
69083;SDS011;56185;48.526;9.044;2024-01-10T00:06:09;25.88;;;12.55;;
69083;SDS011;56185;48.526;9.044;2024-01-10T00:08:35;27.15;;;12.13;;
69083;SDS011;56185;48.526;9.044;2024-01-10T00:11:00;30.15;;;13.10;;
69083;SDS011;56185;48.526;9.044;2024-01-10T00:13:26;24.48;;;12.23;;
69083;SDS011;56185;48.526;9.044;2024-01-10T00:15:51;24.85;;;12.60;;
69083;SDS011;56185;48.526;9.044;2024-01-10T00:18:16;25.52;;;12.68;;
69083;SDS011;56185;48.526;9.044;2024-01-10T00:20:41;24.30;;;13.00;;
69083;SDS011;56185;48.526;9.044;2024-01-10T00:23:07;26.83;;;14.20;;
69083;SDS011;56185;48.526;9.044;2024-01-10T00:25:32;29.65;;;13.13;;
69083;SDS011;56185;48.526;9.044;2024-01-10T00:27:57;30.70;;;13.85;;
69083;SDS011;56185;48.526;9.044;2024-01-10T00:30:22;29.58;;;14.00;;
69083;SDS011;56185;48.526;9.044;2024-01-10T00:32:48;30.85;;;14.35;;
69083;SDS011;56185;48.526;9.044;2024-01-10T00:35:13;26.77;;;14.02;;
69083;SDS011;56185;48.526;9.044;2024-01-10T00:37:38;30.02;;;14.75;;
69083;SDS011;56185;48.526;9.044;2024-01-10T00:40:04;25.20;;;13.38;;
69083;SDS011;56185;48.526;9.044;2024-01-10T00:42:31;30.20;;;13.93;;
69083;SDS011;56185;48.526;9.044;2024-01-10T00:44:56;27.73;;;14.20;;
69083;SDS011;56185;48.526;9.044;2024-01-10T00:47:22;26.83;;;13.93;;
69083;SDS011;56185;48.526;9.044;2024-01-10T00:49:47;23.92;;;12.98;;
69083;SDS011;56185;48.526;9.044;2024-01-10T00:52:12;25.85;;;12.63;;
69083;SDS011;56185;48.526;9.044;2024-01-10T00:54:37;27.08;;;13.93;;
69083;SDS011;56185;48.526;9.044;2024-01-10T00:57:03;27.10;;;13.18;;
69083;SDS011;56185;48.526;9.044;2024-01-10T00:59:28;24.83;;;13.05;;
69083;SDS011;56185;48.526;9.044;2024-01-10T01:01:53;32.40;;;14.60;;
69083;SDS011;56185;48.526;9.044;2024-01-10T01:04:18;27.88;;;14.60;;
69083;SDS011;56185;48.526;9.044;2024-01-10T01:06:44;27.77;;;13.85;;
69083;SDS011;56185;48.526;9.044;2024-01-10T01:09:09;31.55;;;14.15;;
69083;SDS011;56185;48.526;9.044;2024-01-10T01:11:34;26.55;;;13.38;;
69083;SDS011;56185;48.526;9.044;2024-01-10T01:13:59;27.02;;;14.40;;
69083;SDS011;56185;48.526;9.044;2024-01-10T01:16:25;31.67;;;15.38;;
69083;SDS011;56185;48.526;9.044;2024-01-10T01:18:50;25.20;;;13.07;;
69083;SDS011;56185;48.526;9.044;2024-01-10T01:21:15;23.98;;;11.65;;
69083;SDS011;56185;48.526;9.044;2024-01-10T01:23:40;23.13;;;11.20;;
69083;SDS011;56185;48.526;9.044;2024-01-10T01:26:06;20.65;;;11.07;;
69083;SDS011;56185;48.526;9.044;2024-01-10T01:28:31;23.27;;;11.48;;
69083;SDS011;56185;48.526;9.044;2024-01-10T01:30:56;24.80;;;11.63;;
69083;SDS011;56185;48.526;9.044;2024-01-10T01:33:21;25.77;;;12.25;;
69083;SDS011;56185;48.526;9.044;2024-01-10T01:35:47;26.02;;;12.05;;
69083;SDS011;56185;48.526;9.044;2024-01-10T01:38:12;30.35;;;12.63;;
69083;SDS011;56185;48.526;9.044;2024-01-10T01:40:37;20.75;;;11.18;;
69083;SDS011;56185;48.526;9.044;2024-01-10T01:43:17;24.55;;;11.75;;
69083;SDS011;56185;48.526;9.044;2024-01-10T01:45:47;27.13;;;11.13;;
69083;SDS011;56185;48.526;9.044;2024-01-10T01:48:15;24.67;;;11.88;;
69083;SDS011;56185;48.526;9.044;2024-01-10T01:50:40;26.65;;;12.88;;
69083;SDS011;56185;48.526;9.044;2024-01-10T01:53:05;28.02;;;12.63;;
69083;SDS011;56185;48.526;9.044;2024-01-10T01:55:33;25.58;;;12.52;;
69083;SDS011;56185;48.526;9.044;2024-01-10T01:57:59;25.83;;;11.88;;
69083;SDS011;56185;48.526;9.044;2024-01-10T02:00:24;24.67;;;11.95;;
69083;SDS011;56185;48.526;9.044;2024-01-10T02:02:50;20.15;;;11.13;;
69083;SDS011;56185;48.526;9.044;2024-01-10T02:05:16;23.48;;;11.57;;
69083;SDS011;56185;48.526;9.044;2024-01-10T02:07:41;26.25;;;12.23;;
69083;SDS011;56185;48.526;9.044;2024-01-10T02:10:06;22.73;;;11.10;;
69083;SDS011;56185;48.526;9.044;2024-01-10T02:12:32;20.70;;;11.05;;
69083;SDS011;56185;48.526;9.044;2024-01-10T02:14:57;20.60;;;10.68;;
69083;SDS011;56185;48.526;9.044;2024-01-10T02:17:23;20.80;;;11.30;;
69083;SDS011;56185;48.526;9.044;2024-01-10T02:19:49;20.75;;;10.70;;
69083;SDS011;56185;48.526;9.044;2024-01-10T02:22:14;20.60;;;10.90;;
69083;SDS011;56185;48.526;9.044;2024-01-10T02:24:39;20.42;;;10.68;;
69083;SDS011;56185;48.526;9.044;2024-01-10T02:27:04;22.10;;;10.25;;
69083;SDS011;56185;48.526;9.044;2024-01-10T02:29:30;16.63;;;9.05;;
69083;SDS011;56185;48.526;9.044;2024-01-10T02:31:55;18.55;;;9.70;;
69083;SDS011;56185;48.526;9.044;2024-01-10T02:34:21;20.13;;;10.10;;
69083;SDS011;56185;48.526;9.044;2024-01-10T02:36:46;23.25;;;10.05;;
69083;SDS011;56185;48.526;9.044;2024-01-10T02:39:11;21.85;;;9.90;;
69083;SDS011;56185;48.526;9.044;2024-01-10T02:41:36;22.42;;;10.40;;
69083;SDS011;56185;48.526;9.044;2024-01-10T02:44:02;22.45;;;10.63;;
69083;SDS011;56185;48.526;9.044;2024-01-10T02:46:27;20.42;;;10.50;;
69083;SDS011;56185;48.526;9.044;2024-01-10T02:48:53;20.15;;;10.80;;
69083;SDS011;56185;48.526;9.044;2024-01-10T02:51:19;22.50;;;11.15;;
69083;SDS011;56185;48.526;9.044;2024-01-10T02:53:44;23.15;;;10.98;;
69083;SDS011;56185;48.526;9.044;2024-01-10T02:56:09;22.70;;;10.63;;
69083;SDS011;56185;48.526;9.044;2024-01-10T02:58:34;24.42;;;12.50;;
69083;SDS011;56185;48.526;9.044;2024-01-10T03:01:00;21.38;;;11.52;;
69083;SDS011;56185;48.526;9.044;2024-01-10T03:03:25;24.30;;;11.45;;
69083;SDS011;56185;48.526;9.044;2024-01-10T03:05:50;25.48;;;11.65;;
69083;SDS011;56185;48.526;9.044;2024-01-10T03:08:15;25.30;;;12.27;;
69083;SDS011;56185;48.526;9.044;2024-01-10T03:10:44;23.65;;;12.02;;
69083;SDS011;56185;48.526;9.044;2024-01-10T03:13:09;25.15;;;12.35;;
69083;SDS011;56185;48.526;9.044;2024-01-10T03:15:34;31.05;;;13.52;;
69083;SDS011;56185;48.526;9.044;2024-01-10T03:18:00;24.17;;;12.90;;
69083;SDS011;56185;48.526;9.044;2024-01-10T03:20:25;26.45;;;13.98;;
69083;SDS011;56185;48.526;9.044;2024-01-10T03:22:50;27.98;;;12.75;;
69083;SDS011;56185;48.526;9.044;2024-01-10T03:25:15;27.52;;;13.60;;
69083;SDS011;56185;48.526;9.044;2024-01-10T03:27:40;23.77;;;12.18;;
69083;SDS011;56185;48.526;9.044;2024-01-10T03:30:06;25.00;;;13.43;;
69083;SDS011;56185;48.526;9.044;2024-01-10T03:32:32;25.73;;;13.38;;
69083;SDS011;56185;48.526;9.044;2024-01-10T03:34:57;28.73;;;13.68;;
69083;SDS011;56185;48.526;9.044;2024-01-10T03:37:22;29.63;;;13.45;;
69083;SDS011;56185;48.526;9.044;2024-01-10T03:39:47;26.13;;;13.35;;
69083;SDS011;56185;48.526;9.044;2024-01-10T03:42:13;26.45;;;12.88;;
69083;SDS011;56185;48.526;9.044;2024-01-10T03:44:38;24.48;;;12.50;;
69083;SDS011;56185;48.526;9.044;2024-01-10T03:47:03;26.60;;;13.55;;
69083;SDS011;56185;48.526;9.044;2024-01-10T03:49:28;25.92;;;13.52;;
69083;SDS011;56185;48.526;9.044;2024-01-10T03:51:54;25.80;;;12.85;;
69083;SDS011;56185;48.526;9.044;2024-01-10T03:54:19;29.02;;;14.25;;
69083;SDS011;56185;48.526;9.044;2024-01-10T03:56:44;28.48;;;13.65;;
69083;SDS011;56185;48.526;9.044;2024-01-10T03:59:09;29.10;;;13.90;;
69083;SDS011;56185;48.526;9.044;2024-01-10T04:01:35;27.17;;;13.07;;
69083;SDS011;56185;48.526;9.044;2024-01-10T04:04:00;29.38;;;13.65;;
69083;SDS011;56185;48.526;9.044;2024-01-10T04:06:25;22.20;;;12.00;;
69083;SDS011;56185;48.526;9.044;2024-01-10T04:08:50;28.63;;;13.65;;
69083;SDS011;56185;48.526;9.044;2024-01-10T04:11:19;26.17;;;13.35;;
69083;SDS011;56185;48.526;9.044;2024-01-10T04:13:44;30.67;;;13.52;;
69083;SDS011;56185;48.526;9.044;2024-01-10T04:16:09;25.30;;;13.15;;
69083;SDS011;56185;48.526;9.044;2024-01-10T04:18:34;26.90;;;13.70;;
69083;SDS011;56185;48.526;9.044;2024-01-10T04:21:00;27.10;;;14.30;;
69083;SDS011;56185;48.526;9.044;2024-01-10T04:23:25;26.58;;;13.15;;
69083;SDS011;56185;48.526;9.044;2024-01-10T04:25:50;28.08;;;13.77;;
69083;SDS011;56185;48.526;9.044;2024-01-10T04:28:15;27.75;;;14.68;;
69083;SDS011;56185;48.526;9.044;2024-01-10T04:30:41;26.95;;;13.55;;
69083;SDS011;56185;48.526;9.044;2024-01-10T04:33:06;30.20;;;14.98;;
69083;SDS011;56185;48.526;9.044;2024-01-10T04:35:31;33.22;;;14.35;;
69083;SDS011;56185;48.526;9.044;2024-01-10T04:37:57;26.45;;;13.98;;
69083;SDS011;56185;48.526;9.044;2024-01-10T04:40:23;28.90;;;13.68;;
69083;SDS011;56185;48.526;9.044;2024-01-10T04:42:48;30.17;;;13.98;;
69083;SDS011;56185;48.526;9.044;2024-01-10T04:45:13;29.75;;;14.63;;
69083;SDS011;56185;48.526;9.044;2024-01-10T04:47:38;27.13;;;14.25;;
69083;SDS011;56185;48.526;9.044;2024-01-10T04:50:04;31.83;;;14.68;;
69083;SDS011;56185;48.526;9.044;2024-01-10T04:52:29;28.42;;;14.20;;
69083;SDS011;56185;48.526;9.044;2024-01-10T04:54:54;29.30;;;14.93;;
69083;SDS011;56185;48.526;9.044;2024-01-10T04:57:20;31.52;;;15.27;;
69083;SDS011;56185;48.526;9.044;2024-01-10T04:59:45;27.95;;;12.93;;
69083;SDS011;56185;48.526;9.044;2024-01-10T05:02:10;27.25;;;13.25;;
69083;SDS011;56185;48.526;9.044;2024-01-10T05:04:36;28.02;;;14.00;;
69083;SDS011;56185;48.526;9.044;2024-01-10T05:07:01;27.90;;;13.48;;
69083;SDS011;56185;48.526;9.044;2024-01-10T05:09:26;28.08;;;13.75;;
69083;SDS011;56185;48.526;9.044;2024-01-10T05:11:52;26.48;;;13.05;;
69083;SDS011;56185;48.526;9.044;2024-01-10T05:14:17;27.90;;;13.55;;
69083;SDS011;56185;48.526;9.044;2024-01-10T05:16:42;25.42;;;13.07;;
69083;SDS011;56185;48.526;9.044;2024-01-10T05:19:08;27.75;;;13.02;;
69083;SDS011;56185;48.526;9.044;2024-01-10T05:21:33;26.83;;;13.70;;
69083;SDS011;56185;48.526;9.044;2024-01-10T05:23:58;28.30;;;14.05;;
69083;SDS011;56185;48.526;9.044;2024-01-10T05:26:24;26.40;;;14.43;;
69083;SDS011;56185;48.526;9.044;2024-01-10T05:28:49;25.48;;;13.68;;
69083;SDS011;56185;48.526;9.044;2024-01-10T05:31:14;28.38;;;13.18;;
69083;SDS011;56185;48.526;9.044;2024-01-10T05:33:39;29.13;;;13.60;;
69083;SDS011;56185;48.526;9.044;2024-01-10T05:36:05;27.75;;;13.85;;
69083;SDS011;56185;48.526;9.044;2024-01-10T05:38:30;24.92;;;13.02;;
69083;SDS011;56185;48.526;9.044;2024-01-10T05:40:56;26.88;;;13.45;;
69083;SDS011;56185;48.526;9.044;2024-01-10T05:43:21;25.50;;;13.77;;
69083;SDS011;56185;48.526;9.044;2024-01-10T05:45:46;30.90;;;14.98;;
69083;SDS011;56185;48.526;9.044;2024-01-10T05:48:11;31.20;;;13.88;;
69083;SDS011;56185;48.526;9.044;2024-01-10T05:50:36;28.60;;;14.02;;
69083;SDS011;56185;48.526;9.044;2024-01-10T05:53:02;24.42;;;12.73;;
69083;SDS011;56185;48.526;9.044;2024-01-10T05:55:27;25.55;;;13.93;;
69083;SDS011;56185;48.526;9.044;2024-01-10T05:57:52;29.40;;;14.77;;
69083;SDS011;56185;48.526;9.044;2024-01-10T06:00:18;26.58;;;14.50;;
69083;SDS011;56185;48.526;9.044;2024-01-10T06:02:43;28.50;;;14.25;;
69083;SDS011;56185;48.526;9.044;2024-01-10T06:05:09;29.15;;;13.68;;
69083;SDS011;56185;48.526;9.044;2024-01-10T06:07:35;31.77;;;14.05;;
69083;SDS011;56185;48.526;9.044;2024-01-10T06:10:00;28.95;;;13.75;;
69083;SDS011;56185;48.526;9.044;2024-01-10T06:12:26;27.30;;;14.45;;
69083;SDS011;56185;48.526;9.044;2024-01-10T06:14:51;25.13;;;13.00;;
69083;SDS011;56185;48.526;9.044;2024-01-10T06:17:16;25.90;;;13.27;;
69083;SDS011;56185;48.526;9.044;2024-01-10T06:19:42;24.48;;;13.05;;
69083;SDS011;56185;48.526;9.044;2024-01-10T06:22:07;25.92;;;13.95;;
69083;SDS011;56185;48.526;9.044;2024-01-10T06:24:32;27.98;;;14.15;;
69083;SDS011;56185;48.526;9.044;2024-01-10T06:26:57;28.27;;;14.23;;
69083;SDS011;56185;48.526;9.044;2024-01-10T06:29:23;32.25;;;13.88;;
69083;SDS011;56185;48.526;9.044;2024-01-10T06:31:48;32.58;;;14.32;;
69083;SDS011;56185;48.526;9.044;2024-01-10T06:34:19;26.13;;;13.98;;
69083;SDS011;56185;48.526;9.044;2024-01-10T06:36:45;29.40;;;14.43;;
69083;SDS011;56185;48.526;9.044;2024-01-10T06:39:10;33.30;;;15.40;;
69083;SDS011;56185;48.526;9.044;2024-01-10T06:41:36;29.00;;;14.68;;
69083;SDS011;56185;48.526;9.044;2024-01-10T06:44:02;29.25;;;14.90;;
69083;SDS011;56185;48.526;9.044;2024-01-10T06:46:28;31.40;;;15.18;;
69083;SDS011;56185;48.526;9.044;2024-01-10T06:48:53;26.92;;;14.02;;
69083;SDS011;56185;48.526;9.044;2024-01-10T06:51:18;30.40;;;15.63;;
69083;SDS011;56185;48.526;9.044;2024-01-10T06:53:43;31.08;;;15.25;;
69083;SDS011;56185;48.526;9.044;2024-01-10T06:56:11;26.17;;;13.88;;
69083;SDS011;56185;48.526;9.044;2024-01-10T06:58:38;29.80;;;15.35;;
69083;SDS011;56185;48.526;9.044;2024-01-10T07:01:03;30.48;;;14.65;;
69083;SDS011;56185;48.526;9.044;2024-01-10T07:03:29;32.08;;;16.00;;
69083;SDS011;56185;48.526;9.044;2024-01-10T07:05:54;34.13;;;16.10;;
69083;SDS011;56185;48.526;9.044;2024-01-10T07:08:19;31.67;;;15.93;;
69083;SDS011;56185;48.526;9.044;2024-01-10T07:10:44;29.92;;;15.25;;
69083;SDS011;56185;48.526;9.044;2024-01-10T07:13:10;30.98;;;15.05;;
69083;SDS011;56185;48.526;9.044;2024-01-10T07:15:35;28.13;;;14.80;;
69083;SDS011;56185;48.526;9.044;2024-01-10T07:18:00;29.48;;;15.88;;
69083;SDS011;56185;48.526;9.044;2024-01-10T07:20:26;29.02;;;15.10;;
69083;SDS011;56185;48.526;9.044;2024-01-10T07:22:51;34.10;;;15.93;;
69083;SDS011;56185;48.526;9.044;2024-01-10T07:25:16;42.25;;;18.58;;
69083;SDS011;56185;48.526;9.044;2024-01-10T07:27:42;39.25;;;18.70;;
69083;SDS011;56185;48.526;9.044;2024-01-10T07:30:08;35.40;;;17.52;;
69083;SDS011;56185;48.526;9.044;2024-01-10T07:32:34;34.95;;;17.40;;
69083;SDS011;56185;48.526;9.044;2024-01-10T07:34:59;38.38;;;16.48;;
69083;SDS011;56185;48.526;9.044;2024-01-10T07:37:24;31.58;;;16.10;;
69083;SDS011;56185;48.526;9.044;2024-01-10T07:39:49;31.20;;;15.68;;
69083;SDS011;56185;48.526;9.044;2024-01-10T07:42:15;34.88;;;16.05;;
69083;SDS011;56185;48.526;9.044;2024-01-10T07:44:40;33.13;;;15.90;;
69083;SDS011;56185;48.526;9.044;2024-01-10T07:47:05;33.65;;;15.55;;
69083;SDS011;56185;48.526;9.044;2024-01-10T07:49:30;30.25;;;15.75;;
69083;SDS011;56185;48.526;9.044;2024-01-10T07:51:56;31.45;;;17.45;;
69083;SDS011;56185;48.526;9.044;2024-01-10T07:54:21;32.28;;;16.63;;
69083;SDS011;56185;48.526;9.044;2024-01-10T07:56:46;31.38;;;16.35;;
69083;SDS011;56185;48.526;9.044;2024-01-10T07:59:12;30.00;;;16.38;;
69083;SDS011;56185;48.526;9.044;2024-01-10T08:01:37;32.42;;;15.70;;
69083;SDS011;56185;48.526;9.044;2024-01-10T08:04:02;30.02;;;15.30;;
69083;SDS011;56185;48.526;9.044;2024-01-10T08:06:27;30.08;;;15.50;;
69083;SDS011;56185;48.526;9.044;2024-01-10T08:08:53;33.90;;;15.88;;
69083;SDS011;56185;48.526;9.044;2024-01-10T08:11:18;29.70;;;14.82;;
69083;SDS011;56185;48.526;9.044;2024-01-10T08:13:43;35.40;;;16.65;;
69083;SDS011;56185;48.526;9.044;2024-01-10T08:16:08;36.47;;;16.13;;
69083;SDS011;56185;48.526;9.044;2024-01-10T08:18:34;28.70;;;15.13;;
69083;SDS011;56185;48.526;9.044;2024-01-10T08:20:59;28.55;;;15.73;;
69083;SDS011;56185;48.526;9.044;2024-01-10T08:23:24;30.13;;;14.38;;
69083;SDS011;56185;48.526;9.044;2024-01-10T08:25:50;29.42;;;15.55;;
69083;SDS011;56185;48.526;9.044;2024-01-10T08:28:15;29.80;;;15.38;;
69083;SDS011;56185;48.526;9.044;2024-01-10T08:30:40;31.42;;;15.95;;
69083;SDS011;56185;48.526;9.044;2024-01-10T08:33:05;35.70;;;16.67;;
69083;SDS011;56185;48.526;9.044;2024-01-10T08:35:31;35.58;;;16.02;;
69083;SDS011;56185;48.526;9.044;2024-01-10T08:37:56;33.65;;;15.88;;
69083;SDS011;56185;48.526;9.044;2024-01-10T08:40:21;32.63;;;16.58;;
69083;SDS011;56185;48.526;9.044;2024-01-10T08:42:46;33.08;;;16.40;;
69083;SDS011;56185;48.526;9.044;2024-01-10T08:45:12;31.30;;;16.73;;
69083;SDS011;56185;48.526;9.044;2024-01-10T08:47:37;32.60;;;17.40;;
69083;SDS011;56185;48.526;9.044;2024-01-10T08:50:03;33.70;;;17.02;;
69083;SDS011;56185;48.526;9.044;2024-01-10T08:52:29;34.05;;;17.25;;
69083;SDS011;56185;48.526;9.044;2024-01-10T08:54:54;32.67;;;16.70;;
69083;SDS011;56185;48.526;9.044;2024-01-10T08:57:20;32.47;;;16.27;;
69083;SDS011;56185;48.526;9.044;2024-01-10T08:59:46;30.27;;;15.85;;
69083;SDS011;56185;48.526;9.044;2024-01-10T09:02:11;32.75;;;17.17;;
69083;SDS011;56185;48.526;9.044;2024-01-10T09:04:36;35.38;;;16.80;;
69083;SDS011;56185;48.526;9.044;2024-01-10T09:07:01;27.38;;;15.65;;
69083;SDS011;56185;48.526;9.044;2024-01-10T09:09:27;33.72;;;16.60;;
69083;SDS011;56185;48.526;9.044;2024-01-10T09:11:52;34.03;;;16.48;;
69083;SDS011;56185;48.526;9.044;2024-01-10T09:14:17;34.15;;;17.63;;
69083;SDS011;56185;48.526;9.044;2024-01-10T09:16:42;32.13;;;17.00;;
69083;SDS011;56185;48.526;9.044;2024-01-10T09:19:08;32.47;;;16.77;;
69083;SDS011;56185;48.526;9.044;2024-01-10T09:21:33;32.38;;;15.90;;
69083;SDS011;56185;48.526;9.044;2024-01-10T09:23:58;30.60;;;15.45;;
69083;SDS011;56185;48.526;9.044;2024-01-10T09:26:23;28.52;;;15.02;;
69083;SDS011;56185;48.526;9.044;2024-01-10T09:28:49;30.38;;;16.35;;
69083;SDS011;56185;48.526;9.044;2024-01-10T09:31:14;30.75;;;16.17;;
69083;SDS011;56185;48.526;9.044;2024-01-10T09:33:40;28.85;;;15.27;;
69083;SDS011;56185;48.526;9.044;2024-01-10T09:36:05;32.25;;;14.68;;
69083;SDS011;56185;48.526;9.044;2024-01-10T09:38:34;32.00;;;15.18;;
69083;SDS011;56185;48.526;9.044;2024-01-10T09:41:00;30.17;;;15.32;;
69083;SDS011;56185;48.526;9.044;2024-01-10T09:43:31;30.00;;;15.10;;
69083;SDS011;56185;48.526;9.044;2024-01-10T09:45:58;32.13;;;15.45;;
69083;SDS011;56185;48.526;9.044;2024-01-10T09:48:25;29.02;;;15.55;;
69083;SDS011;56185;48.526;9.044;2024-01-10T09:50:51;32.20;;;15.38;;
69083;SDS011;56185;48.526;9.044;2024-01-10T09:53:26;33.72;;;16.55;;
69083;SDS011;56185;48.526;9.044;2024-01-10T09:55:52;30.20;;;15.55;;
69083;SDS011;56185;48.526;9.044;2024-01-10T09:58:18;32.15;;;15.98;;
69083;SDS011;56185;48.526;9.044;2024-01-10T10:00:43;34.90;;;16.40;;
69083;SDS011;56185;48.526;9.044;2024-01-10T10:03:09;30.42;;;15.82;;
69083;SDS011;56185;48.526;9.044;2024-01-10T10:05:34;28.25;;;15.75;;
69083;SDS011;56185;48.526;9.044;2024-01-10T10:08:00;31.20;;;15.45;;
69083;SDS011;56185;48.526;9.044;2024-01-10T10:10:31;30.38;;;15.48;;
69083;SDS011;56185;48.526;9.044;2024-01-10T10:12:56;30.17;;;15.65;;
69083;SDS011;56185;48.526;9.044;2024-01-10T10:15:22;30.80;;;15.63;;
69083;SDS011;56185;48.526;9.044;2024-01-10T10:17:49;27.85;;;15.88;;
69083;SDS011;56185;48.526;9.044;2024-01-10T10:20:21;31.88;;;15.60;;
69083;SDS011;56185;48.526;9.044;2024-01-10T10:22:57;28.85;;;15.20;;
69083;SDS011;56185;48.526;9.044;2024-01-10T10:25:26;32.95;;;16.60;;
69083;SDS011;56185;48.526;9.044;2024-01-10T10:27:53;31.75;;;15.98;;
69083;SDS011;56185;48.526;9.044;2024-01-10T10:30:18;32.28;;;15.95;;
69083;SDS011;56185;48.526;9.044;2024-01-10T10:32:44;29.17;;;15.63;;
69083;SDS011;56185;48.526;9.044;2024-01-10T10:35:09;28.08;;;15.32;;
69083;SDS011;56185;48.526;9.044;2024-01-10T10:37:38;29.15;;;15.82;;
69083;SDS011;56185;48.526;9.044;2024-01-10T10:40:03;32.00;;;15.60;;
69083;SDS011;56185;48.526;9.044;2024-01-10T10:42:29;28.98;;;15.40;;
69083;SDS011;56185;48.526;9.044;2024-01-10T10:44:57;29.48;;;14.90;;
69083;SDS011;56185;48.526;9.044;2024-01-10T10:47:36;29.58;;;14.60;;
69083;SDS011;56185;48.526;9.044;2024-01-10T10:50:02;31.63;;;16.17;;
69083;SDS011;56185;48.526;9.044;2024-01-10T10:52:28;35.63;;;16.58;;
69083;SDS011;56185;48.526;9.044;2024-01-10T10:54:55;29.23;;;15.32;;
69083;SDS011;56185;48.526;9.044;2024-01-10T10:57:21;31.55;;;15.93;;
69083;SDS011;56185;48.526;9.044;2024-01-10T10:59:47;31.80;;;15.68;;
69083;SDS011;56185;48.526;9.044;2024-01-10T11:02:15;32.83;;;16.10;;
69083;SDS011;56185;48.526;9.044;2024-01-10T11:04:46;34.83;;;16.38;;
69083;SDS011;56185;48.526;9.044;2024-01-10T11:07:12;28.35;;;14.10;;
69083;SDS011;56185;48.526;9.044;2024-01-10T11:09:38;30.95;;;15.52;;
69083;SDS011;56185;48.526;9.044;2024-01-10T11:23:37;27.80;;;14.32;;
69083;SDS011;56185;48.526;9.044;2024-01-10T11:25:52;31.92;;;14.10;;
69083;SDS011;56185;48.526;9.044;2024-01-10T11:28:18;28.13;;;14.80;;
69083;SDS011;56185;48.526;9.044;2024-01-10T11:30:50;26.13;;;14.57;;
69083;SDS011;56185;48.526;9.044;2024-01-10T11:36:05;29.38;;;14.57;;
69083;SDS011;56185;48.526;9.044;2024-01-10T11:38:33;31.70;;;15.07;;
69083;SDS011;56185;48.526;9.044;2024-01-10T11:40:58;27.70;;;15.45;;
69083;SDS011;56185;48.526;9.044;2024-01-10T11:43:23;32.35;;;15.68;;
69083;SDS011;56185;48.526;9.044;2024-01-10T11:45:52;27.45;;;14.85;;
69083;SDS011;56185;48.526;9.044;2024-01-10T11:48:26;30.92;;;15.93;;
69083;SDS011;56185;48.526;9.044;2024-01-10T11:50:52;32.15;;;15.27;;
69083;SDS011;56185;48.526;9.044;2024-01-10T11:56:14;31.40;;;15.07;;
69083;SDS011;56185;48.526;9.044;2024-01-10T12:01:28;29.58;;;15.02;;
69083;SDS011;56185;48.526;9.044;2024-01-10T12:03:53;30.75;;;15.32;;
69083;SDS011;56185;48.526;9.044;2024-01-10T12:06:21;32.35;;;16.08;;
69083;SDS011;56185;48.526;9.044;2024-01-10T12:08:50;35.15;;;17.50;;
69083;SDS011;56185;48.526;9.044;2024-01-10T12:11:15;28.63;;;15.55;;
69083;SDS011;56185;48.526;9.044;2024-01-10T12:13:41;33.40;;;15.73;;
69083;SDS011;56185;48.526;9.044;2024-01-10T12:16:06;34.17;;;15.85;;
69083;SDS011;56185;48.526;9.044;2024-01-10T12:18:32;31.38;;;16.15;;
69083;SDS011;56185;48.526;9.044;2024-01-10T12:20:58;28.08;;;15.68;;
69083;SDS011;56185;48.526;9.044;2024-01-10T12:23:26;35.08;;;16.00;;
69083;SDS011;56185;48.526;9.044;2024-01-10T12:25:52;30.20;;;15.55;;
69083;SDS011;56185;48.526;9.044;2024-01-10T12:28:17;29.05;;;15.75;;
69083;SDS011;56185;48.526;9.044;2024-01-10T12:30:42;30.88;;;14.90;;
69083;SDS011;56185;48.526;9.044;2024-01-10T12:33:11;35.78;;;16.65;;
69083;SDS011;56185;48.526;9.044;2024-01-10T12:35:36;27.38;;;15.38;;
69083;SDS011;56185;48.526;9.044;2024-01-10T12:38:01;31.00;;;15.25;;
69083;SDS011;56185;48.526;9.044;2024-01-10T12:40:27;31.17;;;15.57;;
69083;SDS011;56185;48.526;9.044;2024-01-10T12:43:05;27.80;;;15.45;;
69083;SDS011;56185;48.526;9.044;2024-01-10T12:45:30;26.65;;;15.07;;
69083;SDS011;56185;48.526;9.044;2024-01-10T12:47:59;30.02;;;15.93;;
69083;SDS011;56185;48.526;9.044;2024-01-10T12:50:25;31.45;;;16.27;;
69083;SDS011;56185;48.526;9.044;2024-01-10T12:52:50;29.08;;;15.15;;
69083;SDS011;56185;48.526;9.044;2024-01-10T12:55:17;27.75;;;15.13;;
69083;SDS011;56185;48.526;9.044;2024-01-10T12:57:43;23.83;;;13.07;;
69083;SDS011;56185;48.526;9.044;2024-01-10T13:00:08;28.73;;;14.48;;
69083;SDS011;56185;48.526;9.044;2024-01-10T13:02:35;29.73;;;14.50;;
69083;SDS011;56185;48.526;9.044;2024-01-10T13:05:00;27.92;;;14.43;;
69083;SDS011;56185;48.526;9.044;2024-01-10T13:07:26;30.08;;;15.73;;
69083;SDS011;56185;48.526;9.044;2024-01-10T13:09:51;27.38;;;14.55;;
69083;SDS011;56185;48.526;9.044;2024-01-10T13:12:16;26.27;;;14.40;;
69083;SDS011;56185;48.526;9.044;2024-01-10T13:14:41;33.25;;;16.02;;
69083;SDS011;56185;48.526;9.044;2024-01-10T13:17:07;30.20;;;15.38;;
69083;SDS011;56185;48.526;9.044;2024-01-10T13:19:32;29.52;;;15.18;;
69083;SDS011;56185;48.526;9.044;2024-01-10T13:21:57;26.93;;;14.90;;
69083;SDS011;56185;48.526;9.044;2024-01-10T13:24:22;28.00;;;15.25;;
69083;SDS011;56185;48.526;9.044;2024-01-10T13:26:48;28.97;;;14.97;;
69083;SDS011;56185;48.526;9.044;2024-01-10T13:29:13;30.40;;;15.95;;
69083;SDS011;56185;48.526;9.044;2024-01-10T13:31:38;28.47;;;15.23;;
69083;SDS011;56185;48.526;9.044;2024-01-10T13:34:03;29.23;;;15.27;;
69083;SDS011;56185;48.526;9.044;2024-01-10T13:36:32;29.17;;;16.33;;
69083;SDS011;56185;48.526;9.044;2024-01-10T13:38:57;31.27;;;15.82;;
69083;SDS011;56185;48.526;9.044;2024-01-10T13:41:22;34.10;;;16.70;;
69083;SDS011;56185;48.526;9.044;2024-01-10T13:43:47;28.80;;;16.13;;
69083;SDS011;56185;48.526;9.044;2024-01-10T13:46:12;31.07;;;16.23;;
69083;SDS011;56185;48.526;9.044;2024-01-10T13:48:38;32.80;;;15.77;;
69083;SDS011;56185;48.526;9.044;2024-01-10T13:51:03;31.05;;;16.80;;
69083;SDS011;56185;48.526;9.044;2024-01-10T13:53:28;30.25;;;15.63;;
69083;SDS011;56185;48.526;9.044;2024-01-10T13:55:54;31.00;;;16.37;;
69083;SDS011;56185;48.526;9.044;2024-01-10T13:58:19;30.20;;;16.00;;
69083;SDS011;56185;48.526;9.044;2024-01-10T14:00:44;30.87;;;15.80;;
69083;SDS011;56185;48.526;9.044;2024-01-10T14:03:09;27.97;;;15.40;;
69083;SDS011;56185;48.526;9.044;2024-01-10T14:05:34;31.25;;;16.30;;
69083;SDS011;56185;48.526;9.044;2024-01-10T14:08:00;30.40;;;16.63;;
69083;SDS011;56185;48.526;9.044;2024-01-10T14:10:25;33.38;;;16.85;;
69083;SDS011;56185;48.526;9.044;2024-01-10T14:12:50;28.15;;;15.48;;
69083;SDS011;56185;48.526;9.044;2024-01-10T14:15:15;27.83;;;15.07;;
69083;SDS011;56185;48.526;9.044;2024-01-10T14:17:41;25.95;;;15.55;;
69083;SDS011;56185;48.526;9.044;2024-01-10T14:20:06;31.00;;;15.80;;
69083;SDS011;56185;48.526;9.044;2024-01-10T14:22:33;28.00;;;15.48;;
69083;SDS011;56185;48.526;9.044;2024-01-10T14:24:58;29.85;;;15.07;;
69083;SDS011;56185;48.526;9.044;2024-01-10T14:27:23;26.77;;;15.33;;
69083;SDS011;56185;48.526;9.044;2024-01-10T14:29:48;29.98;;;14.82;;
69083;SDS011;56185;48.526;9.044;2024-01-10T14:32:13;30.20;;;16.67;;